This is the latest recevied weather packets stored in our database for station/object KJ6HT. If no packets are shown the sender has not sent any weather packets the latest 10 day(s).
| Time | Temp. | Humidity | Pressure | Rain* | Wind** | Luminosity | Snow |
|---|---|---|---|---|---|---|---|
| 1787870742 | 37.78° C | 35% | 1007.1 hPa | 0 mm | - | - | - |
| 1787869871 | 37.22° C | 36% | 1007.3 hPa | 0 mm | - | - | - |
| 1787868929 | 36.11° C | 39% | 1007.6 hPa | 0 mm | - | - | - |
| 1787868072 | 36.11° C | 39% | 1008 hPa | 0 mm | - | - | - |
| 1787867126 | 36.67° C | 43% | 1008.2 hPa | 0 mm | - | - | - |
| 1787866282 | 37.22° C | 40% | 1008.3 hPa | 0 mm | - | - | - |
| 1787865330 | 36.67° C | 45% | 1008.4 hPa | 0 mm | - | - | - |
| 1787864473 | 36.11° C | 45% | 1008.6 hPa | 0 mm | - | - | - |
| 1787863522 | 36.67° C | 45% | 1008.8 hPa | 0 mm | - | - | - |
| 1787862670 | 36.11° C | 46% | 1008.9 hPa | 0 mm | - | - | - |
| 1787861724 | 37.22° C | 44% | 1009 hPa | 0 mm | - | - | - |
| 1787860868 | 37.78° C | 42% | 1008.9 hPa | 0 mm | - | - | - |
| 1787859926 | 38.33° C | 33% | 1008.9 hPa | 0 mm | - | - | - |
| 1787859057 | 37.22° C | 31% | 1009.2 hPa | 0 mm | - | - | - |
| 1787858112 | 37.22° C | 34% | 1009.3 hPa | 0 mm | - | - | - |
| 1787857278 | 37.22° C | 36% | 1009.2 hPa | 0 mm | - | - | - |
| 1787856344 | 38.33° C | 33% | 1009.4 hPa | 0 mm | - | - | - |
| 1787855480 | 36.67° C | 37% | 1009.6 hPa | 0 mm | - | - | - |
| 1787854548 | 36.11° C | 37% | 1009.9 hPa | 0 mm | - | - | - |
| 1787853663 | 35° C | 40% | 1010 hPa | 0 mm | - | - | - |
| 1787852743 | 35° C | 41% | 1010.1 hPa | 0 mm | - | - | - |
| 1787851879 | 33.89° C | 46% | 1010.2 hPa | 0 mm | - | - | - |
| 1787850944 | 32.78° C | 48% | 1010.4 hPa | 0 mm | - | - | - |
| 1787850067 | 31.11° C | 52% | 1010.3 hPa | 0 mm | - | - | - |
| 1787849129 | 29.44° C | 56% | 1010.3 hPa | 0 mm | - | - | - |
* Rain latest hour (hover to see other rain measurements)
** Current wind speed in m/s (hover to see current wind gust speed)